Malta, OH (43758)

11:25 PM EST on December 19, 2014 (GMT -0500)
Moody Hollow | Change Station
CLOSE
Current Station
Personal Weather Station
Location: Blue Rock, OH
Elevation: 741 ft
Nearby Weather Stations

Elev 741 ft 39.79 °N, 81.93 °W | Updated 10 seconds ago

Overcast
Overcast
29.8 °F
Feels Like 30 °F
N
0.0
Wind Variable Wind from NNW
Gusts 0.0 mph

Today
High -- | Low -- °F
--% Chance of Precip.
Yesterday
High -- | Low -- °F
Precip. -- in
7:43 AM 5:05 PM
Waning Crescent, 5% visible
Pressure 30.30 in
Visibility 10.0 miles
Clouds Overcast 1900 ft
Windchill 30 °F
Dew Point 25 °F
Humidity 83%
Rainfall 0.00 in
Snow Depth Not available.
UV 0 out of 12
Pollen .10 out of 12
Air Quality Not available.
Flu Activity Not available.
METAR KZZV 200353Z AUTO 00000KT 10SM OVC019 M01/M06 A3027 RMK AO2 SLP261 T10111056

More Conditions Fewer Conditions

Pressure 30.30 in
Visibility 10.0 miles
Clouds Overcast 1900 ft
Windchill 30 °F
Dew Point 25 °F
Humidity 83%
Rainfall 0.00 in
Snow Depth Not available.
UV 0 out of 12
Pollen .10 out of 12
Air Quality Not available.
Flu Activity Not available.
METAR KZZV 200353Z AUTO 00000KT 10SM OVC019 M01/M06 A3027 RMK AO2 SLP261 T10111056

More Conditions Fewer Conditions

10-Day Weather Forecast

Almanac

Astronomy

Dec. 19, 2014 Rise Set
Actual Time
Civil Twilight
Nautical Twilight
Astronomical Twilight
Moon
Length of Visible Light
Length of Day
Tomorrow will be .
, % of the Moon is Illuminated

Today's Extremes

State Highs State Lows

Community

WunderPhotos

Upload Photos

1,779,129 photos uploaded!

WunderBlogs® & News

Nearby

Air Quality

  Air Quality AQ Index Pollutant
Not available.

Snow Depth

Station Depth Elevation

Earthquake Activity

City Distance Mag. Time & Date
Minimum magnitude displayed is 2.5.

Coastal Water Temperatures

Place Temperature

Nearby Weather Stations